Terminal Aerodrome Forecast
Issued by NWS

Home | Current Version | Previous Version | Text Only | Print | Product List | Glossary On
Versions: 1 2 3 4 5 6 7 8 9 10 11 12 13
000
FTUS46 KLOX 262345
TAFOXR
TAF
KOXR 262345Z 2700/2724 15007KT P6SM SCT050
     FM270300 VRB03KT P6SM BKN050
     FM270900 VRB04KT P6SM VCSH SCT025 OVC040
     FM271400 VRB04KT P6SM BKN050 OVC100
     FM272000 27013KT P6SM SCT050 BKN100=

USA.gov is the U.S. government's official web portal to all federal, state and local government web resources and services.